Time;durP1;ratioP1;P1;durP2;ratioP2;P2;SDS_P1;SDS_P2;PMS_P1;PMS_P2;Temp;Humidity;BMP_temperature;BMP_pressure;BME280_temperature;BME280_humidity;BME280_pressure;Samples;Min_cycle;Max_cycle;Signal;HPM_P1;HPM_P2
2023/09/16 00:01:12;;;;;;;3.80;3.50;;;;;;;14.14;100.00;101738.25;4991698;28;20688;-46
2023/09/16 00:03:37;;;;;;;4.32;3.92;;;;;;;14.18;100.00;101739.88;4995106;28;20185;-47
2023/09/16 00:06:04;;;;;;;6.20;4.10;;;;;;;14.27;100.00;101724.31;4994496;28;20174;-48
2023/09/16 00:08:32;;;;;;;4.85;3.63;;;;;;;14.26;100.00;101723.44;4994692;28;20165;-47
2023/09/16 00:10:58;;;;;;;3.88;3.50;;;;;;;14.31;100.00;101723.25;4994295;28;20281;-49
2023/09/16 00:13:23;;;;;;;6.07;4.03;;;;;;;14.27;100.00;101722.47;4982990;28;20190;-51
2023/09/16 00:15:49;;;;;;;6.07;4.13;;;;;;;14.27;100.00;101719.78;4974806;28;20190;-46
2023/09/16 00:18:16;;;;;;;7.40;4.13;;;;;;;14.32;100.00;101717.81;4974673;28;20178;-48
2023/09/16 00:20:42;;;;;;;3.92;3.63;;;;;;;14.32;100.00;101712.41;4974526;28;20198;-50
2023/09/16 00:23:08;;;;;;;6.50;3.78;;;;;;;14.32;100.00;101717.81;4974805;28;20174;-48
2023/09/16 00:25:34;;;;;;;5.03;3.80;;;;;;;14.36;100.00;101716.72;4974612;28;20170;-47
2023/09/16 00:27:59;;;;;;;4.65;3.92;;;;;;;14.39;100.00;101707.66;4974646;28;20189;-48
2023/09/16 00:30:25;;;;;;;4.10;3.60;;;;;;;14.39;100.00;101718.44;4989245;28;20272;-48
2023/09/16 00:32:50;;;;;;;4.03;3.70;;;;;;;14.28;100.00;101712.56;4974514;28;20237;-47
2023/09/16 00:35:16;;;;;;;5.07;3.83;;;;;;;14.44;100.00;101716.41;4974353;28;20198;-47
2023/09/16 00:37:43;;;;;;;8.10;4.13;;;;;;;14.42;100.00;101705.69;4974441;28;20174;-49
2023/09/16 00:40:09;;;;;;;4.72;4.30;;;;;;;14.52;100.00;101714.31;4972850;28;20233;-48
2023/09/16 00:42:38;;;;;;;4.18;3.78;;;;;;;14.51;100.00;101700.88;4974442;28;20676;-48
2023/09/16 00:45:10;;;;;;;4.57;3.58;;;;;;;14.52;100.00;101713.41;4972876;28;20178;-47
2023/09/16 00:47:36;;;;;;;3.72;3.42;;;;;;;14.52;100.00;101703.50;4972992;28;20185;-46
2023/09/16 00:50:05;;;;;;;3.80;3.50;;;;;;;14.50;100.00;101710.78;4974282;28;20630;-48
2023/09/16 00:52:32;;;;;;;5.60;4.18;;;;;;;14.52;100.00;101702.59;4974371;28;20197;-49
2023/09/16 00:54:58;;;;;;;5.18;3.80;;;;;;;14.50;100.00;101696.44;4966763;28;20333;-48
2023/09/16 00:57:23;;;;;;;5.93;4.15;;;;;;;14.45;100.00;101696.59;4955026;28;20221;-48
2023/09/16 00:59:49;;;;;;;5.75;4.28;;;;;;;14.43;100.00;101699.38;4953301;28;20245;-50
2023/09/16 01:02:17;;;;;;;6.13;4.18;;;;;;;14.42;100.00;101689.50;4954922;28;20798;-48
2023/09/16 01:04:42;;;;;;;5.07;3.85;;;;;;;14.45;100.00;101691.19;4954664;28;20683;-47
2023/09/16 01:07:08;;;;;;;6.22;4.15;;;;;;;14.46;100.00;101682.19;4954641;28;20160;-48
2023/09/16 01:09:35;;;;;;;5.07;3.80;;;;;;;14.48;100.00;101692.91;4954550;28;20254;-45
2023/09/16 01:12:01;;;;;;;6.07;4.07;;;;;;;14.39;100.00;101684.25;4952559;28;20213;-47
2023/09/16 01:14:27;;;;;;;7.22;4.07;;;;;;;14.34;100.00;101675.47;4952374;28;20729;-48
2023/09/16 01:17:02;;;;;;;4.85;4.03;;;;;;;14.34;100.00;101670.09;4960855;28;20547;-47
2023/09/16 01:19:50;;;;;;;4.60;4.03;;;;;;;14.25;100.00;101675.81;4984516;28;20670;-47
2023/09/16 01:22:16;;;;;;;6.68;4.63;;;;;;;14.28;100.00;101677.53;4993111;28;20202;-46
2023/09/16 01:24:42;;;;;;;6.50;4.40;;;;;;;14.27;100.00;101670.38;4992379;28;20228;-46
2023/09/16 01:27:07;;;;;;;6.82;4.25;;;;;;;14.27;100.00;101673.09;4991225;28;20189;-48
2023/09/16 01:29:34;;;;;;;6.57;4.90;;;;;;;14.21;100.00;101680.47;4991450;28;20189;-45
2023/09/16 01:32:04;;;;;;;5.15;4.65;;;;;;;14.24;100.00;101665.13;4977704;28;20255;-44
2023/09/16 01:34:40;;;;;;;4.43;3.95;;;;;;;14.12;100.00;101666.47;4992433;28;20288;-47
2023/09/16 01:37:16;;;;;;;5.05;4.30;;;;;;;14.10;100.00;101665.66;4992876;28;20177;-45
2023/09/16 01:39:56;;;;;;;6.40;5.18;;;;;;;14.18;100.00;101666.25;4954291;28;20220;-45
2023/09/16 01:42:22;;;;;;;4.85;4.45;;;;;;;14.07;100.00;101665.78;4994470;28;20211;-48
2023/09/16 01:44:48;;;;;;;4.85;4.07;;;;;;;14.06;100.00;101672.09;4971929;28;20253;-44
2023/09/16 01:47:14;;;;;;;4.82;4.20;;;;;;;14.09;100.00;101680.97;4973255;28;20705;-44
2023/09/16 01:49:41;;;;;;;5.22;4.20;;;;;;;14.11;100.00;101671.00;4971710;28;20189;-49
2023/09/16 01:52:08;;;;;;;5.07;4.50;;;;;;;14.05;100.00;101671.25;4973075;28;20186;-44
2023/09/16 01:54:34;;;;;;;7.72;4.93;;;;;;;14.06;100.00;101667.63;4992142;28;20227;-49
2023/09/16 01:57:00;;;;;;;5.20;4.75;;;;;;;14.05;100.00;101676.63;4992498;28;20192;-47
2023/09/16 01:59:31;;;;;;;7.22;4.35;;;;;;;14.11;100.00;101676.38;4988344;28;20609;-47
2023/09/16 02:01:57;;;;;;;5.88;4.63;;;;;;;14.04;100.00;101673.97;4971045;28;20204;-47
2023/09/16 02:04:22;;;;;;;6.35;5.07;;;;;;;13.94;100.00;101658.19;4973081;28;20536;-48
2023/09/16 02:06:48;;;;;;;5.32;4.82;;;;;;;13.93;100.00;101655.56;4976494;28;20647;-46
2023/09/16 02:09:13;;;;;;;6.35;4.70;;;;;;;13.90;100.00;101652.97;4974182;28;20181;-47
2023/09/16 02:11:39;;;;;;;8.05;4.13;;;;;;;13.83;100.00;101649.66;4971393;28;20205;-46
2023/09/16 02:14:05;;;;;;;6.38;4.90;;;;;;;13.80;100.00;101658.72;4978404;28;20215;-47
2023/09/16 02:16:31;;;;;;;5.45;4.70;;;;;;;13.76;100.00;101658.91;4990587;28;20196;-49
2023/09/16 02:18:57;;;;;;;7.60;4.75;;;;;;;13.75;100.00;101657.13;4976365;28;20562;-46
2023/09/16 02:21:23;;;;;;;4.93;4.50;;;;;;;13.73;100.00;101641.06;4971031;28;20190;-46
2023/09/16 02:23:48;;;;;;;5.72;4.90;;;;;;;13.70;100.00;101649.22;4970964;28;20198;-46
2023/09/16 02:26:14;;;;;;;5.30;4.60;;;;;;;13.71;100.00;101653.69;4972668;28;20632;-47
2023/09/16 02:28:41;;;;;;;7.53;4.75;;;;;;;13.74;100.00;101641.91;4971059;28;20277;-45
2023/09/16 02:31:09;;;;;;;6.15;5.55;;;;;;;13.74;100.00;101644.63;4972498;28;20233;-46
2023/09/16 02:33:36;;;;;;;5.13;4.60;;;;;;;13.72;100.00;101641.97;4971167;28;20510;-46
2023/09/16 02:36:04;;;;;;;5.43;4.93;;;;;;;13.77;100.00;101649.88;4972570;28;20166;-44
2023/09/16 02:38:30;;;;;;;6.85;5.13;;;;;;;13.79;100.00;101653.38;4972326;28;20177;-46
2023/09/16 02:40:55;;;;;;;6.20;5.57;;;;;;;13.79;100.00;101645.31;4966441;28;20203;-47
2023/09/16 02:43:21;;;;;;;7.30;5.03;;;;;;;13.80;100.00;101647.94;4951544;28;20207;-46
2023/09/16 02:45:46;;;;;;;7.93;5.53;;;;;;;13.77;100.00;101634.63;4951433;28;20178;-47
2023/09/16 02:48:17;;;;;;;6.18;5.20;;;;;;;13.88;100.00;101634.16;4952908;28;20521;-48
2023/09/16 02:50:45;;;;;;;6.60;4.85;;;;;;;13.83;100.00;101630.78;4951546;28;20650;-44
2023/09/16 02:53:11;;;;;;;7.82;5.00;;;;;;;13.86;100.00;101633.34;4951489;28;20195;-46
2023/09/16 02:55:38;;;;;;;8.13;5.28;;;;;;;13.85;100.00;101622.66;4951213;28;20206;-48
2023/09/16 02:58:05;;;;;;;6.05;5.13;;;;;;;13.82;100.00;101620.97;4953084;28;20704;-45
2023/09/16 03:00:33;;;;;;;5.97;5.43;;;;;;;13.81;100.00;101616.50;4961504;28;20210;-46
2023/09/16 03:02:59;;;;;;;7.15;5.32;;;;;;;13.80;100.00;101628.22;4972400;28;20169;-46
2023/09/16 03:05:25;;;;;;;5.85;4.82;;;;;;;13.79;100.00;101621.06;4970963;28;20280;-49
2023/09/16 03:07:51;;;;;;;7.57;5.60;;;;;;;13.74;100.00;101615.88;4985277;28;20243;-46
2023/09/16 03:10:17;;;;;;;9.18;6.10;;;;;;;13.73;100.00;101613.22;4990221;28;20169;-46
2023/09/16 03:12:42;;;;;;;7.57;6.10;;;;;;;13.76;100.00;101622.06;4991651;28;20181;-45
2023/09/16 03:15:10;;;;;;;6.70;5.15;;;;;;;13.74;100.00;101625.75;5006565;28;20506;-48
2023/09/16 03:17:36;;;;;;;6.18;5.55;;;;;;;13.73;100.00;101624.91;4990292;28;20177;-46
2023/09/16 03:20:02;;;;;;;7.22;5.88;;;;;;;13.71;100.00;101621.38;4990076;28;20219;-47
2023/09/16 03:22:28;;;;;;;5.63;5.13;;;;;;;13.71;100.00;101618.69;4989949;28;20292;-46
2023/09/16 03:24:56;;;;;;;6.10;5.50;;;;;;;13.77;100.00;101612.16;4984510;28;20192;-47
2023/09/16 03:27:22;;;;;;;6.40;5.35;;;;;;;13.80;100.00;101618.31;4970668;28;20178;-46
2023/09/16 03:29:47;;;;;;;9.00;5.50;;;;;;;13.74;100.00;101613.16;4970766;28;20209;-44
2023/09/16 03:32:13;;;;;;;7.20;5.32;;;;;;;13.74;100.00;101621.25;4970582;28;20538;-46
2023/09/16 03:34:38;;;;;;;8.70;5.20;;;;;;;13.79;100.00;101615.69;4970589;28;20263;-46
2023/09/16 03:37:04;;;;;;;6.10;5.45;;;;;;;13.79;100.00;101611.16;4974927;28;20166;-46
2023/09/16 03:39:29;;;;;;;5.97;5.35;;;;;;;13.79;100.00;101599.53;4976166;28;20611;-47
2023/09/16 03:41:55;;;;;;;7.10;5.70;;;;;;;13.80;100.00;101606.69;4983029;28;20237;-45
2023/09/16 03:44:21;;;;;;;8.13;5.70;;;;;;;13.78;100.00;101603.16;4986858;28;20182;-45
2023/09/16 03:46:48;;;;;;;5.97;5.25;;;;;;;13.71;100.00;101599.84;4974415;28;20185;-47
2023/09/16 03:49:14;;;;;;;6.63;5.50;;;;;;;13.74;100.00;101596.13;4974460;28;20269;-49
2023/09/16 03:51:41;;;;;;;7.63;5.40;;;;;;;13.74;100.00;101596.13;4974161;28;20205;-46
2023/09/16 03:54:11;;;;;;;6.60;5.50;;;;;;;13.69;100.00;101595.44;4974150;28;20304;-45
2023/09/16 03:56:37;;;;;;;8.43;6.03;;;;;;;13.65;100.00;101580.34;4992996;28;20170;-47
2023/09/16 03:59:03;;;;;;;7.57;5.47;;;;;;;13.63;100.00;101587.59;4993685;28;20169;-45
2023/09/16 04:01:29;;;;;;;7.68;6.13;;;;;;;13.62;100.00;101591.22;4993161;28;20474;-46
2023/09/16 04:03:57;;;;;;;5.70;5.15;;;;;;;13.60;100.00;101594.88;5009931;28;20295;-45
2023/09/16 04:06:23;;;;;;;7.30;5.80;;;;;;;13.56;100.00;101585.16;5009810;28;20181;-45
2023/09/16 04:08:49;;;;;;;8.23;5.85;;;;;;;13.56;100.00;101585.16;4993285;28;20185;-45
2023/09/16 04:11:14;;;;;;;8.13;6.28;;;;;;;13.57;100.00;101580.63;4994691;28;20702;-45
2023/09/16 04:13:40;;;;;;;7.80;6.40;;;;;;;13.55;100.00;101585.19;4994736;28;20537;-47
2023/09/16 04:16:05;;;;;;;7.60;5.72;;;;;;;13.53;100.00;101584.38;4994682;28;20165;-44
2023/09/16 04:18:31;;;;;;;10.15;6.82;;;;;;;13.51;100.00;101586.25;4993129;28;20314;-47
2023/09/16 04:20:57;;;;;;;6.78;6.18;;;;;;;13.44;100.00;101592.81;4993124;28;20209;-48
2023/09/16 04:23:23;;;;;;;7.30;5.82;;;;;;;13.50;100.00;101597.97;4993505;28;20173;-44
2023/09/16 04:25:57;;;;;;;6.97;5.80;;;;;;;13.49;100.00;101589.03;4993118;28;20275;-45
2023/09/16 04:28:25;;;;;;;6.50;5.53;;;;;;;13.52;100.00;101588.88;4994519;28;20232;-44
2023/09/16 04:30:53;;;;;;;6.85;5.57;;;;;;;13.48;100.00;101589.94;4994640;28;20336;-46
2023/09/16 04:33:21;;;;;;;7.82;5.75;;;;;;;13.47;100.00;101590.88;5009274;28;20201;-47
2023/09/16 04:35:50;;;;;;;7.15;6.45;;;;;;;13.50;100.00;101587.19;4992840;28;20220;-46
2023/09/16 04:38:18;;;;;;;7.35;5.95;;;;;;;13.57;100.00;101584.19;4992771;28;20226;-46
2023/09/16 04:40:46;;;;;;;8.43;6.18;;;;;;;13.48;100.00;101584.56;4992496;28;20213;-46
2023/09/16 04:43:12;;;;;;;7.82;6.10;;;;;;;13.43;100.00;101593.75;4976511;28;20190;-46
2023/09/16 04:45:38;;;;;;;6.85;5.85;;;;;;;13.42;100.00;101584.78;4994127;28;20311;-45
2023/09/16 04:48:04;;;;;;;6.97;5.85;;;;;;;13.43;100.00;101591.06;4990644;28;20180;-44
2023/09/16 04:50:31;;;;;;;6.60;6.00;;;;;;;13.47;100.00;101590.88;4972999;28;20226;-45
2023/09/16 04:53:00;;;;;;;6.65;5.75;;;;;;;13.44;100.00;101593.69;4978827;28;20189;-46
2023/09/16 04:55:26;;;;;;;8.20;6.28;;;;;;;13.43;100.00;101593.75;4993709;28;20205;-47
2023/09/16 04:57:51;;;;;;;8.90;6.07;;;;;;;13.39;100.00;101591.16;4990115;28;20535;-46
2023/09/16 05:00:17;;;;;;;9.48;6.55;;;;;;;13.39;100.00;101590.28;4972887;28;20613;-46
2023/09/16 05:02:48;;;;;;;8.73;6.07;;;;;;;13.40;100.00;101594.72;4974244;28;20174;-45
2023/09/16 05:05:14;;;;;;;6.80;6.10;;;;;;;13.41;100.00;101587.56;4983879;28;20178;-44
2023/09/16 05:07:40;;;;;;;7.35;5.50;;;;;;;13.39;100.00;101591.16;4993495;28;20177;-45
2023/09/16 05:10:07;;;;;;;7.82;6.07;;;;;;;13.37;100.00;101594.84;5008497;28;20188;-45
2023/09/16 05:12:35;;;;;;;7.03;5.95;;;;;;;13.41;100.00;101592.94;4989606;28;20553;-45
2023/09/16 05:15:02;;;;;;;11.05;5.88;;;;;;;13.37;100.00;101593.03;4972582;28;20233;-44
2023/09/16 05:17:27;;;;;;;8.60;6.05;;;;;;;13.39;100.00;101599.25;4972812;28;20275;-44
2023/09/16 05:19:53;;;;;;;6.85;5.97;;;;;;;13.41;100.00;101591.13;4972486;28;20182;-45
2023/09/16 05:22:18;;;;;;;5.78;5.22;;;;;;;13.48;100.00;101587.25;4972386;28;20202;-45
2023/09/16 05:24:44;;;;;;;7.47;6.13;;;;;;;13.47;100.00;101593.59;4956770;28;20236;-45
2023/09/16 05:27:09;;;;;;;6.55;5.95;;;;;;;13.51;100.00;101595.22;4988640;28;20217;-47
2023/09/16 05:29:35;;;;;;;11.70;6.25;;;;;;;13.56;100.00;101593.22;4988435;28;20192;-45
2023/09/16 05:32:02;;;;;;;7.72;5.80;;;;;;;13.59;100.00;101594.91;4988505;28;20198;-48
2023/09/16 05:34:28;;;;;;;7.22;6.53;;;;;;;13.67;100.00;101594.63;4988461;28;20700;-46
2023/09/16 05:36:53;;;;;;;8.82;5.47;;;;;;;13.70;100.00;101591.81;4973964;28;20170;-46
2023/09/16 05:39:19;;;;;;;7.72;5.28;;;;;;;13.64;100.00;101595.59;4972235;28;20205;-47
2023/09/16 05:41:45;;;;;;;10.35;5.93;;;;;;;13.67;100.00;101592.81;4972034;28;20731;-46
2023/09/16 05:44:10;;;;;;;6.60;5.78;;;;;;;13.82;100.00;101594.03;4972154;28;20251;-46
2023/09/16 05:46:36;;;;;;;8.43;5.15;;;;;;;14.05;100.00;101592.22;4972369;28;20178;-45
2023/09/16 05:49:08;;;;;;;8.70;5.22;;;;;;;14.24;100.00;101590.53;4972184;28;20665;-44
2023/09/16 05:51:35;;;;;;;8.63;5.28;;;;;;;14.42;100.00;101589.75;4988276;28;20664;-46
2023/09/16 05:54:01;;;;;;;6.88;4.97;;;;;;;14.55;100.00;101595.53;4971954;28;20274;-47
2023/09/16 05:56:28;;;;;;;5.35;4.85;;;;;;;14.76;100.00;101596.44;4972077;28;20182;-47
2023/09/16 05:58:54;;;;;;;5.68;4.72;;;;;;;14.97;100.00;101591.03;4973659;28;20198;-46
2023/09/16 06:01:21;;;;;;;7.53;5.32;;;;;;;14.93;100.00;101586.72;4972000;28;20201;-47
2023/09/16 06:03:47;;;;;;;5.45;4.90;;;;;;;15.08;100.00;101582.47;4971571;28;20529;-46
2023/09/16 06:06:13;;;;;;;5.57;4.47;;;;;;;15.25;100.00;101585.28;4986898;28;20192;-46
2023/09/16 06:08:39;;;;;;;5.32;4.38;;;;;;;15.49;100.00;101560.78;4992255;28;20642;-48
2023/09/16 06:11:05;;;;;;;7.90;4.88;;;;;;;15.63;100.00;101564.59;4990644;28;20205;-47
2023/09/16 06:13:30;;;;;;;9.73;5.20;;;;;;;15.62;100.00;101560.13;4989504;28;20231;-45
2023/09/16 06:15:57;;;;;;;5.28;4.32;;;;;;;15.78;100.00;101559.41;4990440;28;20201;-46
2023/09/16 06:18:24;;;;;;;6.00;4.10;;;;;;;15.85;100.00;101560.88;4989993;28;20663;-48
2023/09/16 06:20:50;;;;;;;4.43;4.03;;;;;;;16.08;100.00;101557.06;4989556;28;20189;-47
2023/09/16 06:23:16;;;;;;;5.82;4.55;;;;;;;16.09;100.00;101549.81;4992234;28;20648;-44
2023/09/16 06:25:42;;;;;;;7.72;4.32;;;;;;;16.04;100.00;101553.63;4990673;28;20176;-46
2023/09/16 06:28:08;;;;;;;5.72;4.43;;;;;;;16.28;100.00;101558.75;5007508;28;20235;-45
2023/09/16 06:30:35;;;;;;;4.47;3.80;;;;;;;16.51;100.00;101549.47;4994045;28;20253;-46
2023/09/16 06:33:00;;;;;;;4.82;4.07;;;;;;;16.55;100.00;101547.47;4972843;28;20230;-49
2023/09/16 06:35:26;;;;;;;5.95;4.18;;;;;;;16.62;100.00;101548.94;4971368;28;20209;-46
2023/09/16 06:37:52;;;;;;;5.45;4.13;;;;;;;16.47;100.00;101540.63;4968082;28;20210;-46
2023/09/16 06:40:17;;;;;;;6.57;4.40;;;;;;;16.64;100.00;101530.78;4953703;28;20183;-45
2023/09/16 06:42:44;;;;;;;6.65;4.25;;;;;;;16.61;99.38;101537.19;4951981;29;20273;-47
2023/09/16 06:45:12;;;;;;;5.72;4.53;;;;;;;16.80;98.65;101522.75;4958378;28;20166;-45
2023/09/16 06:47:38;;;;;;;5.40;4.40;;;;;;;16.67;98.15;101520.66;4972645;28;20167;-46
2023/09/16 06:50:06;;;;;;;5.53;3.58;;;;;;;17.01;97.46;101515.28;4972617;28;20189;-44
2023/09/16 06:52:31;;;;;;;8.88;4.57;;;;;;;16.97;96.60;101522.72;4988020;28;20734;-44
2023/09/16 06:54:57;;;;;;;4.20;3.80;;;;;;;17.09;95.78;101523.88;4974921;28;20221;-44
2023/09/16 06:57:22;;;;;;;6.45;4.00;;;;;;;17.30;94.88;101516.41;4971338;28;20186;-47
2023/09/16 06:59:49;;;;;;;6.47;5.18;;;;;;;17.65;93.85;101519.84;4972432;28;20182;-45
2023/09/16 07:02:15;;;;;;;5.22;3.95;;;;;;;17.49;91.85;101522.56;4972053;28;20221;-44
2023/09/16 07:04:40;;;;;;;6.38;4.00;;;;;;;17.57;91.43;101515.81;4971532;28;20178;-46
2023/09/16 07:07:07;;;;;;;5.88;4.78;;;;;;;17.65;90.18;101516.28;4971480;28;20169;-47
2023/09/16 07:09:33;;;;;;;4.65;3.95;;;;;;;17.56;90.07;101519.47;4979553;28;20678;-46
2023/09/16 07:11:58;;;;;;;3.88;3.50;;;;;;;17.61;89.48;101522.81;4970938;28;20280;-46
2023/09/16 07:14:24;;;;;;;5.45;3.88;;;;;;;17.86;89.22;101523.22;4971921;28;20210;-43
2023/09/16 07:16:49;;;;;;;4.82;3.58;;;;;;;17.85;88.35;101515.16;4971844;28;20268;-46
2023/09/16 07:19:15;;;;;;;5.82;3.60;;;;;;;18.23;87.58;101514.75;4972049;28;20241;-46
2023/09/16 07:21:40;;;;;;;6.55;3.42;;;;;;;18.39;85.98;101514.69;4971545;28;20672;-46
2023/09/16 07:24:06;;;;;;;6.70;3.40;;;;;;;18.51;84.44;101508.53;4971718;28;20190;-47
2023/09/16 07:26:31;;;;;;;6.15;4.07;;;;;;;18.58;84.10;101504.47;4971968;28;20181;-46
2023/09/16 07:28:58;;;;;;;3.88;3.47;;;;;;;18.84;83.15;101499.31;4972136;28;20594;-46
2023/09/16 07:31:23;;;;;;;3.75;3.05;;;;;;;18.92;83.24;101506.00;4986173;28;20308;-45
2023/09/16 07:33:49;;;;;;;3.63;3.33;;;;;;;18.76;82.29;101507.00;4991129;28;20260;-47
2023/09/16 07:36:15;;;;;;;5.10;3.55;;;;;;;18.92;82.09;101502.44;4991424;28;20186;-45
2023/09/16 07:38:40;;;;;;;5.00;3.63;;;;;;;19.05;81.55;101497.97;4991314;28;20185;-45
2023/09/16 07:41:06;;;;;;;7.50;3.03;;;;;;;18.87;80.95;101496.38;4982756;28;20304;-47
2023/09/16 07:43:31;;;;;;;6.00;3.35;;;;;;;19.15;80.63;101503.69;4971883;28;20170;-45
2023/09/16 07:45:58;;;;;;;6.72;3.65;;;;;;;19.62;80.10;101486.16;4971987;28;20197;-45
2023/09/16 07:48:24;;;;;;;6.15;3.92;;;;;;;19.01;78.83;101477.41;4971788;28;20532;-45
2023/09/16 07:50:49;;;;;;;4.88;2.83;;;;;;;19.55;78.85;101479.38;4971570;28;20252;-45
2023/09/16 07:53:15;;;;;;;5.30;3.55;;;;;;;19.69;79.08;101478.47;4971683;28;20208;-47
2023/09/16 07:55:40;;;;;;;4.30;3.33;;;;;;;19.62;78.07;101468.97;4971609;28;20221;-46
2023/09/16 07:58:06;;;;;;;5.55;3.42;;;;;;;20.16;76.58;101469.84;4971688;28;20174;-46
2023/09/16 08:00:32;;;;;;;3.35;3.05;;;;;;;20.33;75.97;101462.38;4971533;28;20198;-45
2023/09/16 08:02:57;;;;;;;4.22;3.00;;;;;;;20.44;74.84;101454.31;4971540;28;20595;-47
2023/09/16 08:05:23;;;;;;;6.28;3.58;;;;;;;20.37;74.83;101461.19;4971852;28;20259;-46
2023/09/16 08:07:48;;;;;;;3.35;2.92;;;;;;;20.25;74.21;101453.88;4971629;28;20564;-46
2023/09/16 08:10:14;;;;;;;4.38;2.92;;;;;;;20.27;73.57;101450.06;4976332;28;20173;-47
2023/09/16 08:12:40;;;;;;;3.25;2.78;;;;;;;20.31;73.86;101451.63;4975013;28;20189;-47
2023/09/16 08:15:06;;;;;;;3.47;3.17;;;;;;;20.17;73.50;101447.09;4970870;28;20197;-46
2023/09/16 08:17:33;;;;;;;4.03;3.25;;;;;;;19.83;73.30;101444.94;4967024;28;20188;-45
2023/09/16 08:20:00;;;;;;;4.25;2.80;;;;;;;20.16;73.62;101453.53;4971838;28;20178;-45
2023/09/16 08:22:27;;;;;;;5.60;3.13;;;;;;;20.37;72.58;101443.00;4978901;28;20210;-44
2023/09/16 08:24:53;;;;;;;3.35;3.00;;;;;;;20.10;73.11;101443.06;4974852;28;20174;-45
2023/09/16 08:27:20;;;;;;;3.25;2.95;;;;;;;20.66;73.06;101444.69;4987385;28;20179;-45
2023/09/16 08:29:46;;;;;;;3.50;3.05;;;;;;;20.71;71.86;101432.50;4986903;28;20200;-49
2023/09/16 08:32:11;;;;;;;3.90;3.03;;;;;;;20.36;71.70;101432.25;4974634;28;20221;-48
2023/09/16 08:34:37;;;;;;;4.57;2.50;;;;;;;20.81;71.26;101429.97;4974725;28;20214;-45
2023/09/16 08:37:02;;;;;;;3.05;2.85;;;;;;;20.74;70.99;101440.44;4974637;28;20200;-46
2023/09/16 08:39:28;;;;;;;3.80;2.88;;;;;;;20.82;70.86;101423.56;4959961;28;20218;-47
2023/09/16 08:42:07;;;;;;;3.78;2.95;;;;;;;20.89;71.07;101429.44;4955731;28;20718;-44
2023/09/16 08:44:41;;;;;;;4.40;3.05;;;;;;;21.04;70.72;101428.31;4970204;28;20645;-48
2023/09/16 08:47:10;;;;;;;5.47;3.33;;;;;;;21.05;69.77;101430.03;4975907;28;20178;-45
2023/09/16 08:49:45;;;;;;;3.17;2.90;;;;;;;21.12;69.33;101423.19;4989382;28;20282;-45
2023/09/16 08:52:16;;;;;;;3.30;3.00;;;;;;;21.08;69.30;101427.13;4938536;28;20683;-43
2023/09/16 08:54:43;;;;;;;5.18;2.90;;;;;;;21.23;68.52;101416.94;4985280;28;20216;-46
2023/09/16 08:57:11;;;;;;;3.63;2.90;;;;;;;21.31;68.28;101424.53;4989436;28;20589;-45
2023/09/16 08:59:39;;;;;;;4.78;2.78;;;;;;;21.64;68.05;101415.72;4992303;28;20643;-46
2023/09/16 09:02:04;;;;;;;3.88;2.50;;;;;;;21.68;66.62;101403.59;4982482;28;20197;-46
2023/09/16 09:04:31;;;;;;;3.00;2.70;;;;;;;21.77;66.11;101400.16;4981291;28;20516;-46
2023/09/16 09:06:56;;;;;;;5.72;2.88;;;;;;;21.49;65.55;101386.88;4977401;28;20181;-46
2023/09/16 09:09:22;;;;;;;4.65;2.83;;;;;;;21.54;66.00;101381.97;4986232;28;20663;-47
2023/09/16 09:11:48;;;;;;;3.47;2.65;;;;;;;21.54;65.99;101387.44;4984023;28;20197;-46
2023/09/16 09:14:15;;;;;;;3.10;2.58;;;;;;;21.86;66.05;101389.53;4985651;28;20315;-45
2023/09/16 09:16:43;;;;;;;6.07;2.50;;;;;;;21.79;65.25;101380.97;4985409;28;20478;-46
2023/09/16 09:19:11;;;;;;;3.95;2.33;;;;;;;22.36;65.35;101373.81;4965778;28;20190;-48
2023/09/16 09:21:37;;;;;;;4.25;2.67;;;;;;;22.37;65.43;101375.59;4973822;28;20251;-47
2023/09/16 09:24:02;;;;;;;3.70;2.42;;;;;;;22.25;64.56;101363.75;4977981;28;20197;-47
2023/09/16 09:26:28;;;;;;;2.40;2.20;;;;;;;22.05;64.44;101375.34;4981685;28;20687;-47
2023/09/16 09:28:53;;;;;;;4.88;2.33;;;;;;;22.37;64.08;101359.19;4973887;28;20194;-48
2023/09/16 09:31:19;;;;;;;3.60;2.67;;;;;;;22.45;63.45;101347.66;4983820;28;20288;-47
2023/09/16 09:33:48;;;;;;;3.67;2.35;;;;;;;22.37;63.16;101346.41;4992319;28;20616;-47
2023/09/16 09:36:17;;;;;;;3.22;2.28;;;;;;;22.41;62.72;101344.28;4984814;28;20173;-46
2023/09/16 09:38:45;;;;;;;3.10;2.40;;;;;;;22.58;62.12;101335.59;4985098;28;20185;-46
2023/09/16 09:41:12;;;;;;;5.72;2.60;;;;;;;22.40;61.61;101337.97;4980804;28;20201;-47
2023/09/16 09:43:37;;;;;;;3.63;2.50;;;;;;;22.36;61.53;101331.00;4981388;28;20255;-46
2023/09/16 09:46:03;;;;;;;2.80;2.60;;;;;;;22.26;61.36;101319.09;4986344;28;20638;-48
2023/09/16 09:48:35;;;;;;;3.33;2.47;;;;;;;22.22;61.21;101323.06;4991530;28;20348;-47
2023/09/16 09:51:01;;;;;;;2.65;2.42;;;;;;;22.36;60.98;101325.53;4988735;28;20239;-45
2023/09/16 09:53:28;;;;;;;3.28;2.58;;;;;;;22.65;61.12;101322.31;4973674;28;20660;-46
2023/09/16 09:55:54;;;;;;;3.65;2.08;;;;;;;23.06;61.23;101330.88;4980770;28;20205;-46
2023/09/16 09:58:20;;;;;;;2.47;2.17;;;;;;;22.75;59.94;101304.19;4992047;28;20235;-45
2023/09/16 10:00:50;;;;;;;2.58;2.38;;;;;;;22.85;60.07;101312.50;4983554;28;20201;-47
2023/09/16 10:03:21;;;;;;;3.78;2.50;;;;;;;23.19;59.64;101304.25;4975455;28;20264;-48
2023/09/16 10:05:46;;;;;;;3.70;2.53;;;;;;;23.20;58.92;101295.94;4967025;28;20175;-46
2023/09/16 10:08:13;;;;;;;3.90;2.40;;;;;;;23.20;59.73;101308.75;4961177;28;20186;-47
2023/09/16 10:10:40;;;;;;;4.43;2.63;;;;;;;23.27;59.57;101300.88;4984994;28;20711;-47
2023/09/16 10:13:06;;;;;;;5.40;3.05;;;;;;;22.94;59.00;101295.34;4982152;28;20181;-48
2023/09/16 10:15:35;;;;;;;6.15;2.80;;;;;;;23.16;58.23;101283.53;4991655;28;20207;-48
2023/09/16 10:18:02;;;;;;;4.45;2.75;;;;;;;23.21;58.37;101285.84;4985934;28;20783;-47
2023/09/16 10:20:31;;;;;;;6.10;3.00;;;;;;;23.43;57.79;101273.97;4977284;28;20822;-46
2023/09/16 10:22:57;;;;;;;3.85;2.80;;;;;;;22.89;57.84;101283.91;4988212;28;20593;-47
2023/09/16 10:25:23;;;;;;;5.38;3.20;;;;;;;22.82;58.67;101282.69;4986132;28;20173;-47
2023/09/16 10:27:56;;;;;;;3.58;3.03;;;;;;;22.62;58.89;101277.00;4982079;28;20191;-46
2023/09/16 10:30:23;;;;;;;5.70;2.63;;;;;;;23.04;58.78;101281.81;4991561;28;20193;-46
2023/09/16 10:32:48;;;;;;;5.13;2.50;;;;;;;23.17;58.70;101278.91;4979913;28;20590;-48
2023/09/16 10:35:14;;;;;;;3.20;2.38;;;;;;;22.81;59.41;101287.28;4982832;28;20276;-45
2023/09/16 10:37:44;;;;;;;4.30;2.58;;;;;;;22.87;59.21;101279.56;4991409;28;20215;-48
2023/09/16 10:40:10;;;;;;;3.85;3.03;;;;;;;22.83;58.27;101270.78;4987306;28;20174;-47
2023/09/16 10:42:37;;;;;;;3.95;2.20;;;;;;;23.05;58.48;101275.34;4975799;28;20181;-47
2023/09/16 10:45:03;;;;;;;5.15;2.55;;;;;;;23.26;57.57;101252.66;4980330;28;20178;-47
2023/09/16 10:47:30;;;;;;;3.17;2.70;;;;;;;23.12;57.37;101257.44;4978177;28;20205;-45
2023/09/16 10:49:56;;;;;;;3.17;2.50;;;;;;;23.01;58.00;101265.69;4991210;28;20184;-48
2023/09/16 10:52:33;;;;;;;3.05;2.75;;;;;;;22.73;58.47;101278.00;4980530;28;20648;-47
2023/09/16 10:55:14;;;;;;;3.13;2.42;;;;;;;22.76;58.97;101273.16;4919875;28;1145299;-48
2023/09/16 10:57:47;;;;;;;2.95;2.00;;;;;;;22.99;59.20;101276.69;4973014;28;20196;-47
2023/09/16 11:00:18;;;;;;;5.05;2.67;;;;;;;23.28;58.68;101278.00;4991537;28;20189;-47
2023/09/16 11:02:52;;;;;;;4.40;2.78;;;;;;;22.93;59.20;101274.47;4991593;28;20582;-48
2023/09/16 11:05:18;;;;;;;3.70;2.65;;;;;;;22.85;59.44;101271.53;4988536;28;20589;-47
2023/09/16 11:07:44;;;;;;;3.92;2.35;;;;;;;22.86;59.59;101284.19;4991370;28;20188;-47
2023/09/16 11:10:10;;;;;;;5.35;3.03;;;;;;;22.40;59.16;101277.91;4975988;28;20195;-49
2023/09/16 11:12:37;;;;;;;6.20;2.63;;;;;;;22.99;59.85;101301.28;4952644;28;20184;-47
2023/09/16 11:15:09;;;;;;;5.05;2.78;;;;;;;23.07;58.00;101265.16;4957949;28;20220;-46
2023/09/16 11:17:39;;;;;;;3.60;2.80;;;;;;;23.04;58.88;101277.19;4984324;28;20188;-49